sensor_id;sensor_type;location;lat;lon;timestamp;temperature;humidity
51793;DHT22;37850;53.178;6.376;2023-12-04T00:00:25;0.10;99.90
51793;DHT22;37850;53.178;6.376;2023-12-04T00:02:51;0.10;99.90
51793;DHT22;37850;53.178;6.376;2023-12-04T00:05:17;0.10;99.90
51793;DHT22;37850;53.178;6.376;2023-12-04T00:07:42;0.10;99.90
51793;DHT22;37850;53.178;6.376;2023-12-04T00:10:08;0.10;99.90
51793;DHT22;37850;53.178;6.376;2023-12-04T00:12:34;0.90;99.90
51793;DHT22;37850;53.178;6.376;2023-12-04T00:15:00;0.10;99.90
51793;DHT22;37850;53.178;6.376;2023-12-04T00:17:25;0.10;99.90
51793;DHT22;37850;53.178;6.376;2023-12-04T00:19:51;0.10;99.90
51793;DHT22;37850;53.178;6.376;2023-12-04T00:22:17;0.00;99.90
51793;DHT22;37850;53.178;6.376;2023-12-04T00:24:42;0.00;99.90
51793;DHT22;37850;53.178;6.376;2023-12-04T00:27:08;0.00;99.90
51793;DHT22;37850;53.178;6.376;2023-12-04T00:29:34;0.00;99.90
51793;DHT22;37850;53.178;6.376;2023-12-04T00:31:59;0.00;99.90
51793;DHT22;37850;53.178;6.376;2023-12-04T00:34:25;0.10;99.90
51793;DHT22;37850;53.178;6.376;2023-12-04T00:36:51;0.00;99.90
51793;DHT22;37850;53.178;6.376;2023-12-04T00:39:17;0.00;99.90
51793;DHT22;37850;53.178;6.376;2023-12-04T00:41:43;1.10;99.90
51793;DHT22;37850;53.178;6.376;2023-12-04T00:44:08;0.10;99.90
51793;DHT22;37850;53.178;6.376;2023-12-04T00:46:34;0.00;99.90
51793;DHT22;37850;53.178;6.376;2023-12-04T00:49:00;0.00;99.90
51793;DHT22;37850;53.178;6.376;2023-12-04T00:51:25;0.00;99.90
51793;DHT22;37850;53.178;6.376;2023-12-04T00:53:51;0.00;99.90
51793;DHT22;37850;53.178;6.376;2023-12-04T00:56:17;0.00;99.90
51793;DHT22;37850;53.178;6.376;2023-12-04T00:58:45;0.00;99.90
51793;DHT22;37850;53.178;6.376;2023-12-04T01:01:10;0.00;99.90
51793;DHT22;37850;53.178;6.376;2023-12-04T01:03:37;0.00;99.90
51793;DHT22;37850;53.178;6.376;2023-12-04T01:06:03;0.00;99.90
51793;DHT22;37850;53.178;6.376;2023-12-04T01:08:29;0.00;99.90
51793;DHT22;37850;53.178;6.376;2023-12-04T01:10:55;0.00;99.90
51793;DHT22;37850;53.178;6.376;2023-12-04T01:13:21;0.10;99.90
51793;DHT22;37850;53.178;6.376;2023-12-04T01:15:46;0.00;99.90
51793;DHT22;37850;53.178;6.376;2023-12-04T01:18:14;0.00;99.90
51793;DHT22;37850;53.178;6.376;2023-12-04T01:20:40;0.00;99.90
51793;DHT22;37850;53.178;6.376;2023-12-04T01:23:06;0.00;99.90
51793;DHT22;37850;53.178;6.376;2023-12-04T01:25:32;0.00;99.90
51793;DHT22;37850;53.178;6.376;2023-12-04T01:27:57;0.00;99.90
51793;DHT22;37850;53.178;6.376;2023-12-04T01:30:23;0.00;99.90
51793;DHT22;37850;53.178;6.376;2023-12-04T01:32:49;0.00;99.90
51793;DHT22;37850;53.178;6.376;2023-12-04T01:35:14;0.00;99.90
51793;DHT22;37850;53.178;6.376;2023-12-04T01:37:40;0.00;99.90
51793;DHT22;37850;53.178;6.376;2023-12-04T01:40:06;0.00;99.90
51793;DHT22;37850;53.178;6.376;2023-12-04T01:42:32;0.00;99.90
51793;DHT22;37850;53.178;6.376;2023-12-04T01:44:58;0.00;99.90
51793;DHT22;37850;53.178;6.376;2023-12-04T01:47:24;0.00;99.90
51793;DHT22;37850;53.178;6.376;2023-12-04T01:49:51;0.00;99.90
51793;DHT22;37850;53.178;6.376;2023-12-04T01:52:17;0.20;99.90
51793;DHT22;37850;53.178;6.376;2023-12-04T01:54:44;0.00;99.90
51793;DHT22;37850;53.178;6.376;2023-12-04T01:57:10;0.00;99.90
51793;DHT22;37850;53.178;6.376;2023-12-04T01:59:36;0.10;99.90
51793;DHT22;37850;53.178;6.376;2023-12-04T02:02:02;0.00;99.90
51793;DHT22;37850;53.178;6.376;2023-12-04T02:04:27;0.00;99.90
51793;DHT22;37850;53.178;6.376;2023-12-04T02:06:54;0.00;99.90
51793;DHT22;37850;53.178;6.376;2023-12-04T02:09:20;0.80;99.90
51793;DHT22;37850;53.178;6.376;2023-12-04T02:11:45;0.00;99.90
51793;DHT22;37850;53.178;6.376;2023-12-04T02:14:11;0.00;99.90
51793;DHT22;37850;53.178;6.376;2023-12-04T02:16:40;0.00;99.90
51793;DHT22;37850;53.178;6.376;2023-12-04T02:19:08;0.00;99.90
51793;DHT22;37850;53.178;6.376;2023-12-04T02:21:37;0.20;99.90
51793;DHT22;37850;53.178;6.376;2023-12-04T02:24:03;0.00;99.90
51793;DHT22;37850;53.178;6.376;2023-12-04T02:26:32;0.10;99.90
51793;DHT22;37850;53.178;6.376;2023-12-04T02:29:03;0.10;99.90
51793;DHT22;37850;53.178;6.376;2023-12-04T02:31:31;0.00;99.90
51793;DHT22;37850;53.178;6.376;2023-12-04T02:33:59;0.10;99.90
51793;DHT22;37850;53.178;6.376;2023-12-04T02:36:27;0.10;99.90
51793;DHT22;37850;53.178;6.376;2023-12-04T02:38:55;0.00;99.90
51793;DHT22;37850;53.178;6.376;2023-12-04T02:41:21;0.10;99.90
51793;DHT22;37850;53.178;6.376;2023-12-04T02:43:46;0.30;99.90
51793;DHT22;37850;53.178;6.376;2023-12-04T02:46:12;0.30;99.90
51793;DHT22;37850;53.178;6.376;2023-12-04T02:48:38;0.10;99.90
51793;DHT22;37850;53.178;6.376;2023-12-04T02:51:04;0.10;99.90
51793;DHT22;37850;53.178;6.376;2023-12-04T02:53:30;0.10;99.90
51793;DHT22;37850;53.178;6.376;2023-12-04T02:55:56;0.10;99.90
51793;DHT22;37850;53.178;6.376;2023-12-04T02:58:21;0.10;99.90
51793;DHT22;37850;53.178;6.376;2023-12-04T03:00:47;0.10;99.90
51793;DHT22;37850;53.178;6.376;2023-12-04T03:03:13;0.10;99.90
51793;DHT22;37850;53.178;6.376;2023-12-04T03:05:38;0.60;99.90
51793;DHT22;37850;53.178;6.376;2023-12-04T03:08:04;0.10;99.90
51793;DHT22;37850;53.178;6.376;2023-12-04T03:10:30;0.10;99.90
51793;DHT22;37850;53.178;6.376;2023-12-04T03:12:55;0.10;99.90
51793;DHT22;37850;53.178;6.376;2023-12-04T03:15:21;0.10;99.90
51793;DHT22;37850;53.178;6.376;2023-12-04T03:17:47;0.20;99.90
51793;DHT22;37850;53.178;6.376;2023-12-04T03:20:12;0.10;99.90
51793;DHT22;37850;53.178;6.376;2023-12-04T03:22:38;0.10;99.90
51793;DHT22;37850;53.178;6.376;2023-12-04T03:25:04;0.10;99.90
51793;DHT22;37850;53.178;6.376;2023-12-04T03:27:30;0.10;99.90
51793;DHT22;37850;53.178;6.376;2023-12-04T03:29:56;0.10;99.90
51793;DHT22;37850;53.178;6.376;2023-12-04T03:32:21;0.10;99.90
51793;DHT22;37850;53.178;6.376;2023-12-04T03:34:47;0.20;99.90
51793;DHT22;37850;53.178;6.376;2023-12-04T03:37:13;0.10;99.90
51793;DHT22;37850;53.178;6.376;2023-12-04T03:39:39;0.20;99.90
51793;DHT22;37850;53.178;6.376;2023-12-04T03:42:04;0.30;99.90
51793;DHT22;37850;53.178;6.376;2023-12-04T03:44:30;0.30;99.90
51793;DHT22;37850;53.178;6.376;2023-12-04T03:46:56;0.20;99.90
51793;DHT22;37850;53.178;6.376;2023-12-04T03:49:21;0.20;99.90
51793;DHT22;37850;53.178;6.376;2023-12-04T03:51:47;0.10;99.90
51793;DHT22;37850;53.178;6.376;2023-12-04T03:54:13;0.10;99.90
51793;DHT22;37850;53.178;6.376;2023-12-04T03:56:39;0.20;99.90
51793;DHT22;37850;53.178;6.376;2023-12-04T03:59:06;0.20;99.90
51793;DHT22;37850;53.178;6.376;2023-12-04T04:01:31;0.20;99.90
51793;DHT22;37850;53.178;6.376;2023-12-04T04:03:57;0.20;99.90
51793;DHT22;37850;53.178;6.376;2023-12-04T04:06:23;0.20;99.90
51793;DHT22;37850;53.178;6.376;2023-12-04T04:08:48;0.20;99.90
51793;DHT22;37850;53.178;6.376;2023-12-04T04:11:14;0.20;99.90
51793;DHT22;37850;53.178;6.376;2023-12-04T04:13:40;1.10;99.90
51793;DHT22;37850;53.178;6.376;2023-12-04T04:16:06;0.20;99.90
51793;DHT22;37850;53.178;6.376;2023-12-04T04:18:32;0.20;99.90
51793;DHT22;37850;53.178;6.376;2023-12-04T04:20:58;1.40;99.90
51793;DHT22;37850;53.178;6.376;2023-12-04T04:23:23;0.50;99.90
51793;DHT22;37850;53.178;6.376;2023-12-04T04:25:49;1.20;99.90
51793;DHT22;37850;53.178;6.376;2023-12-04T04:28:15;0.20;99.90
51793;DHT22;37850;53.178;6.376;2023-12-04T04:30:41;0.20;99.90
51793;DHT22;37850;53.178;6.376;2023-12-04T04:33:06;0.20;99.90
51793;DHT22;37850;53.178;6.376;2023-12-04T04:35:32;0.20;99.90
51793;DHT22;37850;53.178;6.376;2023-12-04T04:37:58;0.20;99.90
51793;DHT22;37850;53.178;6.376;2023-12-04T04:40:23;0.20;99.90
51793;DHT22;37850;53.178;6.376;2023-12-04T04:42:49;0.20;99.90
51793;DHT22;37850;53.178;6.376;2023-12-04T04:45:15;1.30;99.90
51793;DHT22;37850;53.178;6.376;2023-12-04T04:47:41;0.20;99.90
51793;DHT22;37850;53.178;6.376;2023-12-04T04:50:06;0.30;99.90
51793;DHT22;37850;53.178;6.376;2023-12-04T04:52:32;0.30;99.90
51793;DHT22;37850;53.178;6.376;2023-12-04T04:54:58;0.20;99.90
51793;DHT22;37850;53.178;6.376;2023-12-04T04:57:24;0.20;99.90
51793;DHT22;37850;53.178;6.376;2023-12-04T04:59:49;0.30;99.90
51793;DHT22;37850;53.178;6.376;2023-12-04T05:02:15;0.30;99.90
51793;DHT22;37850;53.178;6.376;2023-12-04T05:04:41;0.30;99.90
51793;DHT22;37850;53.178;6.376;2023-12-04T05:07:06;0.30;99.90
51793;DHT22;37850;53.178;6.376;2023-12-04T05:09:32;0.20;99.90
51793;DHT22;37850;53.178;6.376;2023-12-04T05:11:58;0.20;99.90
51793;DHT22;37850;53.178;6.376;2023-12-04T05:14:23;0.20;99.90
51793;DHT22;37850;53.178;6.376;2023-12-04T05:16:49;0.30;99.90
51793;DHT22;37850;53.178;6.376;2023-12-04T05:19:15;0.30;99.90
51793;DHT22;37850;53.178;6.376;2023-12-04T05:21:41;0.20;99.90
51793;DHT22;37850;53.178;6.376;2023-12-04T05:24:07;0.30;99.90
51793;DHT22;37850;53.178;6.376;2023-12-04T05:26:32;0.30;99.90
51793;DHT22;37850;53.178;6.376;2023-12-04T05:28:58;0.30;99.90
51793;DHT22;37850;53.178;6.376;2023-12-04T05:31:24;0.30;99.90
51793;DHT22;37850;53.178;6.376;2023-12-04T05:33:49;0.30;99.90
51793;DHT22;37850;53.178;6.376;2023-12-04T05:36:15;0.30;99.90
51793;DHT22;37850;53.178;6.376;2023-12-04T05:38:41;0.30;99.90
51793;DHT22;37850;53.178;6.376;2023-12-04T05:41:06;0.30;99.90
51793;DHT22;37850;53.178;6.376;2023-12-04T05:43:32;0.30;99.90
51793;DHT22;37850;53.178;6.376;2023-12-04T05:45:58;0.30;99.90
51793;DHT22;37850;53.178;6.376;2023-12-04T05:48:23;0.30;99.90
51793;DHT22;37850;53.178;6.376;2023-12-04T05:50:49;0.30;99.90
51793;DHT22;37850;53.178;6.376;2023-12-04T05:53:15;0.30;99.90
51793;DHT22;37850;53.178;6.376;2023-12-04T05:55:41;0.60;99.90
51793;DHT22;37850;53.178;6.376;2023-12-04T05:58:07;0.30;99.90
51793;DHT22;37850;53.178;6.376;2023-12-04T06:00:32;0.50;99.90
51793;DHT22;37850;53.178;6.376;2023-12-04T06:02:58;0.30;99.90
51793;DHT22;37850;53.178;6.376;2023-12-04T06:05:24;0.30;99.90
51793;DHT22;37850;53.178;6.376;2023-12-04T06:07:50;0.30;99.90
51793;DHT22;37850;53.178;6.376;2023-12-04T06:10:18;0.30;99.90
51793;DHT22;37850;53.178;6.376;2023-12-04T06:12:44;0.30;99.90
51793;DHT22;37850;53.178;6.376;2023-12-04T06:15:10;0.30;99.90
51793;DHT22;37850;53.178;6.376;2023-12-04T06:17:36;0.30;99.90
51793;DHT22;37850;53.178;6.376;2023-12-04T06:20:01;0.30;99.90
51793;DHT22;37850;53.178;6.376;2023-12-04T06:22:27;0.30;99.90
51793;DHT22;37850;53.178;6.376;2023-12-04T06:24:53;0.30;99.90
51793;DHT22;37850;53.178;6.376;2023-12-04T06:27:19;0.30;99.90
51793;DHT22;37850;53.178;6.376;2023-12-04T06:29:46;0.30;99.90
51793;DHT22;37850;53.178;6.376;2023-12-04T06:32:13;0.30;99.90
51793;DHT22;37850;53.178;6.376;2023-12-04T06:34:39;0.30;99.90
51793;DHT22;37850;53.178;6.376;2023-12-04T06:37:10;0.30;99.90
51793;DHT22;37850;53.178;6.376;2023-12-04T06:39:37;0.30;99.90
51793;DHT22;37850;53.178;6.376;2023-12-04T06:42:04;0.30;99.90
51793;DHT22;37850;53.178;6.376;2023-12-04T06:44:30;0.30;99.90
51793;DHT22;37850;53.178;6.376;2023-12-04T06:47:01;0.30;99.90
51793;DHT22;37850;53.178;6.376;2023-12-04T06:49:32;0.30;99.90
51793;DHT22;37850;53.178;6.376;2023-12-04T06:52:01;0.30;99.90
51793;DHT22;37850;53.178;6.376;2023-12-04T06:54:27;0.30;99.90
51793;DHT22;37850;53.178;6.376;2023-12-04T06:56:53;0.30;99.90
51793;DHT22;37850;53.178;6.376;2023-12-04T06:59:19;0.30;99.90
51793;DHT22;37850;53.178;6.376;2023-12-04T07:01:44;0.30;99.90
51793;DHT22;37850;53.178;6.376;2023-12-04T07:04:10;0.30;99.90
51793;DHT22;37850;53.178;6.376;2023-12-04T07:06:37;0.30;99.90
51793;DHT22;37850;53.178;6.376;2023-12-04T07:09:03;0.30;99.90
51793;DHT22;37850;53.178;6.376;2023-12-04T07:11:29;0.30;99.90
51793;DHT22;37850;53.178;6.376;2023-12-04T07:13:55;0.30;99.90
51793;DHT22;37850;53.178;6.376;2023-12-04T07:16:21;0.30;99.90
51793;DHT22;37850;53.178;6.376;2023-12-04T07:18:47;0.30;99.90
51793;DHT22;37850;53.178;6.376;2023-12-04T07:21:12;0.20;99.90
51793;DHT22;37850;53.178;6.376;2023-12-04T07:23:38;0.30;99.90
51793;DHT22;37850;53.178;6.376;2023-12-04T07:26:04;0.20;99.90
51793;DHT22;37850;53.178;6.376;2023-12-04T07:28:32;0.30;99.90
51793;DHT22;37850;53.178;6.376;2023-12-04T07:30:58;0.30;99.90
51793;DHT22;37850;53.178;6.376;2023-12-04T07:33:24;0.20;99.90
51793;DHT22;37850;53.178;6.376;2023-12-04T07:35:49;0.20;99.90
51793;DHT22;37850;53.178;6.376;2023-12-04T07:38:17;0.30;99.90
51793;DHT22;37850;53.178;6.376;2023-12-04T07:40:43;0.30;99.90
51793;DHT22;37850;53.178;6.376;2023-12-04T07:43:09;0.20;99.90
51793;DHT22;37850;53.178;6.376;2023-12-04T07:45:34;0.20;99.90
51793;DHT22;37850;53.178;6.376;2023-12-04T07:48:03;0.20;99.90
51793;DHT22;37850;53.178;6.376;2023-12-04T07:50:29;0.20;99.90
51793;DHT22;37850;53.178;6.376;2023-12-04T07:52:54;0.20;99.90
51793;DHT22;37850;53.178;6.376;2023-12-04T07:55:20;0.20;99.90
51793;DHT22;37850;53.178;6.376;2023-12-04T07:57:46;0.20;99.90
51793;DHT22;37850;53.178;6.376;2023-12-04T08:00:13;0.20;99.90
51793;DHT22;37850;53.178;6.376;2023-12-04T08:02:39;0.20;99.90
51793;DHT22;37850;53.178;6.376;2023-12-04T08:05:06;0.20;99.90
51793;DHT22;37850;53.178;6.376;2023-12-04T08:07:32;0.20;99.90
51793;DHT22;37850;53.178;6.376;2023-12-04T08:09:58;0.20;99.90
51793;DHT22;37850;53.178;6.376;2023-12-04T08:12:23;0.20;99.90
51793;DHT22;37850;53.178;6.376;2023-12-04T08:14:49;0.20;99.90
51793;DHT22;37850;53.178;6.376;2023-12-04T08:17:15;0.20;99.90
51793;DHT22;37850;53.178;6.376;2023-12-04T08:19:41;0.20;99.90
51793;DHT22;37850;53.178;6.376;2023-12-04T08:22:07;0.30;99.90
51793;DHT22;37850;53.178;6.376;2023-12-04T08:24:32;0.30;99.90
51793;DHT22;37850;53.178;6.376;2023-12-04T08:26:58;0.30;99.90
51793;DHT22;37850;53.178;6.376;2023-12-04T08:29:24;0.30;99.90
51793;DHT22;37850;53.178;6.376;2023-12-04T08:31:49;0.50;99.90
51793;DHT22;37850;53.178;6.376;2023-12-04T08:34:16;0.30;99.90
51793;DHT22;37850;53.178;6.376;2023-12-04T08:36:41;0.70;99.90
51793;DHT22;37850;53.178;6.376;2023-12-04T08:39:07;0.30;99.90
51793;DHT22;37850;53.178;6.376;2023-12-04T08:41:33;0.30;99.90
51793;DHT22;37850;53.178;6.376;2023-12-04T08:43:58;0.40;99.90
51793;DHT22;37850;53.178;6.376;2023-12-04T08:46:24;0.30;99.90
51793;DHT22;37850;53.178;6.376;2023-12-04T08:48:50;0.50;99.90
51793;DHT22;37850;53.178;6.376;2023-12-04T08:51:17;0.40;99.90
51793;DHT22;37850;53.178;6.376;2023-12-04T08:53:43;0.40;99.90
51793;DHT22;37850;53.178;6.376;2023-12-04T08:56:10;0.40;99.90
51793;DHT22;37850;53.178;6.376;2023-12-04T08:58:36;0.40;99.90
51793;DHT22;37850;53.178;6.376;2023-12-04T09:01:02;0.40;99.90
51793;DHT22;37850;53.178;6.376;2023-12-04T09:03:29;0.40;99.90
51793;DHT22;37850;53.178;6.376;2023-12-04T09:05:57;0.40;99.90
51793;DHT22;37850;53.178;6.376;2023-12-04T09:08:23;0.40;99.90
51793;DHT22;37850;53.178;6.376;2023-12-04T09:10:51;0.40;99.90
51793;DHT22;37850;53.178;6.376;2023-12-04T09:13:17;0.50;99.90
51793;DHT22;37850;53.178;6.376;2023-12-04T09:15:42;0.40;99.90
51793;DHT22;37850;53.178;6.376;2023-12-04T09:18:08;0.50;99.90
51793;DHT22;37850;53.178;6.376;2023-12-04T09:20:34;0.50;99.90
51793;DHT22;37850;53.178;6.376;2023-12-04T09:23:00;0.50;99.90
51793;DHT22;37850;53.178;6.376;2023-12-04T09:25:25;0.50;99.90
51793;DHT22;37850;53.178;6.376;2023-12-04T09:27:51;0.50;99.90
51793;DHT22;37850;53.178;6.376;2023-12-04T09:30:17;0.50;99.90
51793;DHT22;37850;53.178;6.376;2023-12-04T09:32:43;0.50;99.90
51793;DHT22;37850;53.178;6.376;2023-12-04T09:35:10;0.50;99.90
51793;DHT22;37850;53.178;6.376;2023-12-04T09:37:36;0.50;99.90
51793;DHT22;37850;53.178;6.376;2023-12-04T09:40:01;0.60;99.90
51793;DHT22;37850;53.178;6.376;2023-12-04T09:42:30;0.60;99.90
51793;DHT22;37850;53.178;6.376;2023-12-04T09:44:56;0.60;99.90
51793;DHT22;37850;53.178;6.376;2023-12-04T09:47:24;0.60;99.90
51793;DHT22;37850;53.178;6.376;2023-12-04T09:49:52;0.60;99.90
51793;DHT22;37850;53.178;6.376;2023-12-04T09:52:20;0.60;99.90
51793;DHT22;37850;53.178;6.376;2023-12-04T09:54:46;0.60;99.90
51793;DHT22;37850;53.178;6.376;2023-12-04T09:57:12;0.60;99.90
51793;DHT22;37850;53.178;6.376;2023-12-04T09:59:38;0.60;99.90
51793;DHT22;37850;53.178;6.376;2023-12-04T10:02:05;0.60;99.90
51793;DHT22;37850;53.178;6.376;2023-12-04T10:04:32;1.40;99.90
51793;DHT22;37850;53.178;6.376;2023-12-04T10:06:58;0.70;99.90
51793;DHT22;37850;53.178;6.376;2023-12-04T10:09:24;0.70;99.90
51793;DHT22;37850;53.178;6.376;2023-12-04T10:11:51;1.40;99.90
51793;DHT22;37850;53.178;6.376;2023-12-04T10:14:21;0.70;99.90
51793;DHT22;37850;53.178;6.376;2023-12-04T10:16:47;0.80;99.90
51793;DHT22;37850;53.178;6.376;2023-12-04T10:19:20;0.80;99.90
51793;DHT22;37850;53.178;6.376;2023-12-04T10:21:49;0.90;99.90
51793;DHT22;37850;53.178;6.376;2023-12-04T10:24:30;0.90;99.90
51793;DHT22;37850;53.178;6.376;2023-12-04T10:26:56;0.90;99.90
51793;DHT22;37850;53.178;6.376;2023-12-04T10:29:22;0.90;99.90
51793;DHT22;37850;53.178;6.376;2023-12-04T10:31:48;1.10;99.90
51793;DHT22;37850;53.178;6.376;2023-12-04T10:34:16;0.90;99.90
51793;DHT22;37850;53.178;6.376;2023-12-04T10:36:42;0.90;99.90
51793;DHT22;37850;53.178;6.376;2023-12-04T10:39:10;1.60;99.90
51793;DHT22;37850;53.178;6.376;2023-12-04T10:41:38;1.00;99.90
51793;DHT22;37850;53.178;6.376;2023-12-04T10:44:04;1.00;99.90
51793;DHT22;37850;53.178;6.376;2023-12-04T10:46:31;1.00;99.90
51793;DHT22;37850;53.178;6.376;2023-12-04T10:48:57;1.40;99.90
51793;DHT22;37850;53.178;6.376;2023-12-04T10:51:24;1.00;99.90
51793;DHT22;37850;53.178;6.376;2023-12-04T10:53:51;1.10;99.90
51793;DHT22;37850;53.178;6.376;2023-12-04T10:56:27;1.10;99.90
51793;DHT22;37850;53.178;6.376;2023-12-04T10:58:57;1.10;99.90
51793;DHT22;37850;53.178;6.376;2023-12-04T11:01:25;1.20;99.90
51793;DHT22;37850;53.178;6.376;2023-12-04T11:03:56;1.20;99.90
51793;DHT22;37850;53.178;6.376;2023-12-04T11:06:25;1.20;99.90
51793;DHT22;37850;53.178;6.376;2023-12-04T11:08:56;1.20;99.90
51793;DHT22;37850;53.178;6.376;2023-12-04T11:11:35;1.30;99.90
51793;DHT22;37850;53.178;6.376;2023-12-04T11:14:05;1.30;99.90
51793;DHT22;37850;53.178;6.376;2023-12-04T11:16:41;1.30;99.90
51793;DHT22;37850;53.178;6.376;2023-12-04T11:19:16;1.30;99.90
51793;DHT22;37850;53.178;6.376;2023-12-04T11:21:45;1.40;99.90
51793;DHT22;37850;53.178;6.376;2023-12-04T11:24:12;1.70;99.90
51793;DHT22;37850;53.178;6.376;2023-12-04T11:26:42;1.40;99.90
51793;DHT22;37850;53.178;6.376;2023-12-04T11:29:09;1.40;99.90
51793;DHT22;37850;53.178;6.376;2023-12-04T11:31:37;1.40;99.90
51793;DHT22;37850;53.178;6.376;2023-12-04T11:34:03;1.80;99.90
51793;DHT22;37850;53.178;6.376;2023-12-04T11:36:29;1.50;99.90
51793;DHT22;37850;53.178;6.376;2023-12-04T11:38:55;1.50;99.90
51793;DHT22;37850;53.178;6.376;2023-12-04T11:41:25;1.50;99.90
51793;DHT22;37850;53.178;6.376;2023-12-04T11:43:51;1.40;99.90
51793;DHT22;37850;53.178;6.376;2023-12-04T11:46:25;1.40;99.90
51793;DHT22;37850;53.178;6.376;2023-12-04T11:48:54;1.40;99.90
51793;DHT22;37850;53.178;6.376;2023-12-04T11:54:08;1.90;99.90
51793;DHT22;37850;53.178;6.376;2023-12-04T11:56:33;1.40;99.90
51793;DHT22;37850;53.178;6.376;2023-12-04T11:59:06;1.50;99.90
51793;DHT22;37850;53.178;6.376;2023-12-04T12:01:39;1.50;99.90
51793;DHT22;37850;53.178;6.376;2023-12-04T12:04:07;1.40;99.90
51793;DHT22;37850;53.178;6.376;2023-12-04T12:06:33;1.40;99.90
51793;DHT22;37850;53.178;6.376;2023-12-04T12:08:59;1.40;99.90
51793;DHT22;37850;53.178;6.376;2023-12-04T12:11:25;1.50;99.90
51793;DHT22;37850;53.178;6.376;2023-12-04T12:13:53;1.40;99.90
51793;DHT22;37850;53.178;6.376;2023-12-04T12:16:19;1.40;99.90
51793;DHT22;37850;53.178;6.376;2023-12-04T12:18:45;1.60;99.90
51793;DHT22;37850;53.178;6.376;2023-12-04T12:21:12;1.40;99.90
51793;DHT22;37850;53.178;6.376;2023-12-04T12:23:38;1.40;99.90
51793;DHT22;37850;53.178;6.376;2023-12-04T12:26:04;2.10;99.90
51793;DHT22;37850;53.178;6.376;2023-12-04T12:28:30;1.30;99.90
51793;DHT22;37850;53.178;6.376;2023-12-04T12:30:56;1.40;99.90
51793;DHT22;37850;53.178;6.376;2023-12-04T12:33:22;1.40;99.90
51793;DHT22;37850;53.178;6.376;2023-12-04T12:35:48;1.50;99.90
51793;DHT22;37850;53.178;6.376;2023-12-04T12:38:15;1.40;99.90
51793;DHT22;37850;53.178;6.376;2023-12-04T12:40:41;1.80;99.90
51793;DHT22;37850;53.178;6.376;2023-12-04T12:43:08;1.40;99.90
51793;DHT22;37850;53.178;6.376;2023-12-04T12:45:43;1.40;99.90
51793;DHT22;37850;53.178;6.376;2023-12-04T12:48:16;1.40;99.90
51793;DHT22;37850;53.178;6.376;2023-12-04T12:50:51;1.40;99.90
51793;DHT22;37850;53.178;6.376;2023-12-04T12:53:18;1.40;99.90
51793;DHT22;37850;53.178;6.376;2023-12-04T12:55:44;1.40;99.90
51793;DHT22;37850;53.178;6.376;2023-12-04T12:58:10;1.80;99.90
51793;DHT22;37850;53.178;6.376;2023-12-04T13:00:39;1.40;99.90
51793;DHT22;37850;53.178;6.376;2023-12-04T13:03:15;1.70;99.90
51793;DHT22;37850;53.178;6.376;2023-12-04T13:05:41;1.40;99.90
51793;DHT22;37850;53.178;6.376;2023-12-04T13:08:07;1.40;99.90
51793;DHT22;37850;53.178;6.376;2023-12-04T13:10:34;1.40;99.90
51793;DHT22;37850;53.178;6.376;2023-12-04T13:13:00;1.50;99.90
51793;DHT22;37850;53.178;6.376;2023-12-04T13:15:29;1.40;99.90
51793;DHT22;37850;53.178;6.376;2023-12-04T13:17:54;1.50;99.90
51793;DHT22;37850;53.178;6.376;2023-12-04T13:20:20;1.50;99.90
51793;DHT22;37850;53.178;6.376;2023-12-04T13:22:46;1.50;99.90
51793;DHT22;37850;53.178;6.376;2023-12-04T13:25:12;1.50;99.90
51793;DHT22;37850;53.178;6.376;2023-12-04T13:27:38;1.50;99.90
51793;DHT22;37850;53.178;6.376;2023-12-04T13:30:07;1.70;99.90
51793;DHT22;37850;53.178;6.376;2023-12-04T13:32:39;1.50;99.90
51793;DHT22;37850;53.178;6.376;2023-12-04T13:35:05;1.50;99.90
51793;DHT22;37850;53.178;6.376;2023-12-04T13:37:33;1.50;99.90
51793;DHT22;37850;53.178;6.376;2023-12-04T13:40:02;1.50;99.90
51793;DHT22;37850;53.178;6.376;2023-12-04T13:42:38;1.50;99.90
51793;DHT22;37850;53.178;6.376;2023-12-04T13:45:23;1.50;99.90
51793;DHT22;37850;53.178;6.376;2023-12-04T13:47:49;1.50;99.90
51793;DHT22;37850;53.178;6.376;2023-12-04T13:50:16;1.50;99.90
51793;DHT22;37850;53.178;6.376;2023-12-04T13:52:42;1.50;99.90
51793;DHT22;37850;53.178;6.376;2023-12-04T13:55:11;2.40;99.90
51793;DHT22;37850;53.178;6.376;2023-12-04T13:57:44;1.50;99.90
51793;DHT22;37850;53.178;6.376;2023-12-04T14:00:30;1.50;99.90
51793;DHT22;37850;53.178;6.376;2023-12-04T14:02:56;1.50;99.90
51793;DHT22;37850;53.178;6.376;2023-12-04T14:05:32;2.20;99.90
51793;DHT22;37850;53.178;6.376;2023-12-04T14:07:58;1.50;99.90
51793;DHT22;37850;53.178;6.376;2023-12-04T14:10:27;1.50;99.90
51793;DHT22;37850;53.178;6.376;2023-12-04T14:12:54;1.50;99.90
51793;DHT22;37850;53.178;6.376;2023-12-04T14:15:19;1.50;99.90
51793;DHT22;37850;53.178;6.376;2023-12-04T14:17:45;1.50;99.90
51793;DHT22;37850;53.178;6.376;2023-12-04T14:20:14;1.50;99.90
51793;DHT22;37850;53.178;6.376;2023-12-04T14:22:45;1.40;99.90
51793;DHT22;37850;53.178;6.376;2023-12-04T14:25:13;1.40;99.90
51793;DHT22;37850;53.178;6.376;2023-12-04T14:27:39;1.40;99.90
51793;DHT22;37850;53.178;6.376;2023-12-04T14:30:10;1.40;99.90
51793;DHT22;37850;53.178;6.376;2023-12-04T14:32:36;1.40;99.90
51793;DHT22;37850;53.178;6.376;2023-12-04T14:35:04;1.40;99.90
51793;DHT22;37850;53.178;6.376;2023-12-04T14:37:30;1.40;99.90
51793;DHT22;37850;53.178;6.376;2023-12-04T14:39:55;1.40;99.90
51793;DHT22;37850;53.178;6.376;2023-12-04T14:42:21;1.40;99.90
51793;DHT22;37850;53.178;6.376;2023-12-04T14:44:47;1.40;99.90
51793;DHT22;37850;53.178;6.376;2023-12-04T14:47:13;1.40;99.90
51793;DHT22;37850;53.178;6.376;2023-12-04T14:49:38;1.40;99.90
51793;DHT22;37850;53.178;6.376;2023-12-04T14:52:04;1.40;99.90
51793;DHT22;37850;53.178;6.376;2023-12-04T14:54:33;1.30;99.90
51793;DHT22;37850;53.178;6.376;2023-12-04T14:57:20;1.30;99.90
51793;DHT22;37850;53.178;6.376;2023-12-04T14:59:54;1.30;99.90
51793;DHT22;37850;53.178;6.376;2023-12-04T15:02:36;1.30;99.90
51793;DHT22;37850;53.178;6.376;2023-12-04T15:05:01;1.30;99.90
51793;DHT22;37850;53.178;6.376;2023-12-04T15:07:30;1.30;99.90
51793;DHT22;37850;53.178;6.376;2023-12-04T15:10:34;1.30;99.90
51793;DHT22;37850;53.178;6.376;2023-12-04T15:13:26;1.30;99.90
51793;DHT22;37850;53.178;6.376;2023-12-04T15:16:10;1.40;99.90
51793;DHT22;37850;53.178;6.376;2023-12-04T15:18:39;1.20;99.90
51793;DHT22;37850;53.178;6.376;2023-12-04T15:21:11;1.20;99.90
51793;DHT22;37850;53.178;6.376;2023-12-04T15:23:36;1.10;99.90
51793;DHT22;37850;53.178;6.376;2023-12-04T15:26:02;1.10;99.90
51793;DHT22;37850;53.178;6.376;2023-12-04T15:28:28;1.10;99.90
51793;DHT22;37850;53.178;6.376;2023-12-04T15:30:54;1.50;99.90
51793;DHT22;37850;53.178;6.376;2023-12-04T15:33:21;1.10;99.90
51793;DHT22;37850;53.178;6.376;2023-12-04T15:35:51;1.10;99.90
51793;DHT22;37850;53.178;6.376;2023-12-04T15:38:17;1.10;99.90
51793;DHT22;37850;53.178;6.376;2023-12-04T15:40:44;1.10;99.90
51793;DHT22;37850;53.178;6.376;2023-12-04T15:43:10;1.00;99.90
51793;DHT22;37850;53.178;6.376;2023-12-04T15:45:36;1.00;99.90